sensor_id;sensor_type;location;lat;lon;timestamp;pressure;altitude;pressure_sealevel;temperature;humidity
77631;BME280;66798;47.370;8.552;2023-04-06T05:19:38;96867.09;;;-0.25;71.94
77631;BME280;66798;47.370;8.552;2023-04-06T05:22:04;96873.88;;;-0.17;73.86
77631;BME280;66798;47.370;8.552;2023-04-06T05:24:30;96872.16;;;-0.03;73.77
77631;BME280;66798;47.370;8.552;2023-04-06T05:26:55;96873.66;;;0.19;73.55
77631;BME280;66798;47.370;8.552;2023-04-06T05:29:21;96876.13;;;0.48;72.04
77631;BME280;66798;47.370;8.552;2023-04-06T05:31:46;96881.69;;;0.45;70.25
77631;BME280;66798;47.370;8.552;2023-04-06T05:34:12;96885.69;;;0.47;69.76
77631;BME280;66798;47.370;8.552;2023-04-06T05:36:38;96884.03;;;0.33;69.09
77631;BME280;66798;47.370;8.552;2023-04-06T05:39:03;96882.91;;;0.49;70.88
77631;BME280;66798;47.370;8.552;2023-04-06T05:41:29;96887.72;;;0.65;70.43
77631;BME280;66798;47.370;8.552;2023-04-06T05:43:55;96889.13;;;0.88;69.75
77631;BME280;66798;47.370;8.552;2023-04-06T05:46:20;96888.59;;;1.12;69.13
77631;BME280;66798;47.370;8.552;2023-04-06T05:48:46;96890.53;;;1.50;68.30
77631;BME280;66798;47.370;8.552;2023-04-06T05:51:12;96884.56;;;2.21;67.34
77631;BME280;66798;47.370;8.552;2023-04-06T05:53:37;96886.00;;;3.44;62.35
77631;BME280;66798;47.370;8.552;2023-04-06T05:56:03;96891.63;;;5.47;55.43
77631;BME280;66798;47.370;8.552;2023-04-06T05:58:29;96890.00;;;7.03;50.20
77631;BME280;66798;47.370;8.552;2023-04-06T06:00:59;96890.19;;;8.25;46.95
77631;BME280;66798;47.370;8.552;2023-04-06T06:03:24;96899.31;;;8.66;45.29
77631;BME280;66798;47.370;8.552;2023-04-06T06:05:50;96893.81;;;10.07;42.73
77631;BME280;66798;47.370;8.552;2023-04-06T06:08:15;96898.28;;;10.75;39.75
77631;BME280;66798;47.370;8.552;2023-04-06T06:10:41;96900.69;;;10.81;39.91
77631;BME280;66798;47.370;8.552;2023-04-06T06:13:06;96899.41;;;11.45;38.46
77631;BME280;66798;47.370;8.552;2023-04-06T06:15:32;96900.50;;;11.44;38.01
77631;BME280;66798;47.370;8.552;2023-04-06T06:17:57;96902.31;;;11.80;37.06
77631;BME280;66798;47.370;8.552;2023-04-06T06:20:23;96909.69;;;11.57;37.74
77631;BME280;66798;47.370;8.552;2023-04-06T06:22:48;96913.91;;;11.33;38.70
77631;BME280;66798;47.370;8.552;2023-04-06T06:25:14;96908.78;;;12.83;35.75
77631;BME280;66798;47.370;8.552;2023-04-06T06:27:39;96917.13;;;13.01;35.21
77631;BME280;66798;47.370;8.552;2023-04-06T06:30:05;96912.81;;;13.54;34.04
77631;BME280;66798;47.370;8.552;2023-04-06T06:32:32;96910.63;;;13.62;33.80
77631;BME280;66798;47.370;8.552;2023-04-06T06:34:58;96908.19;;;13.36;34.57
77631;BME280;66798;47.370;8.552;2023-04-06T06:37:23;96912.22;;;13.23;34.16
77631;BME280;66798;47.370;8.552;2023-04-06T06:39:48;96913.75;;;13.69;33.50
77631;BME280;66798;47.370;8.552;2023-04-06T06:42:14;96910.19;;;14.32;33.24
77631;BME280;66798;47.370;8.552;2023-04-06T06:44:40;96912.28;;;13.13;34.56
77631;BME280;66798;47.370;8.552;2023-04-06T06:47:05;96911.06;;;15.08;31.83
77631;BME280;66798;47.370;8.552;2023-04-06T06:49:31;96905.22;;;15.11;30.89
77631;BME280;66798;47.370;8.552;2023-04-06T06:51:56;96910.69;;;9.36;39.89
77631;BME280;66798;47.370;8.552;2023-04-06T06:54:21;96922.16;;;9.95;41.51
77631;BME280;66798;47.370;8.552;2023-04-06T06:56:47;96916.75;;;14.10;34.10
77631;BME280;66798;47.370;8.552;2023-04-06T06:59:12;96910.44;;;14.78;32.41
77631;BME280;66798;47.370;8.552;2023-04-06T07:01:38;96913.25;;;13.32;33.72
77631;BME280;66798;47.370;8.552;2023-04-06T07:04:04;96913.88;;;16.65;30.17
77631;BME280;66798;47.370;8.552;2023-04-06T07:06:29;96916.22;;;12.76;33.50
77631;BME280;66798;47.370;8.552;2023-04-06T07:09:01;96914.25;;;12.47;36.23
77631;BME280;66798;47.370;8.552;2023-04-06T07:11:29;96908.72;;;12.49;35.61
77631;BME280;66798;47.370;8.552;2023-04-06T07:13:54;96908.38;;;11.34;37.31
77631;BME280;66798;47.370;8.552;2023-04-06T07:16:20;96911.19;;;13.19;35.05
77631;BME280;66798;47.370;8.552;2023-04-06T07:18:46;96907.19;;;14.14;33.04
77631;BME280;66798;47.370;8.552;2023-04-06T07:21:11;96904.47;;;13.71;32.66
77631;BME280;66798;47.370;8.552;2023-04-06T07:23:37;96904.97;;;13.73;33.19
77631;BME280;66798;47.370;8.552;2023-04-06T07:26:03;96905.13;;;12.14;35.65
77631;BME280;66798;47.370;8.552;2023-04-06T07:28:28;96901.19;;;13.79;33.19
77631;BME280;66798;47.370;8.552;2023-04-06T07:30:54;96902.78;;;11.82;36.29
77631;BME280;66798;47.370;8.552;2023-04-06T07:33:20;96898.59;;;11.86;37.17
77631;BME280;66798;47.370;8.552;2023-04-06T07:35:45;96899.41;;;12.62;35.78
77631;BME280;66798;47.370;8.552;2023-04-06T07:38:11;96903.34;;;16.74;29.91
77631;BME280;66798;47.370;8.552;2023-04-06T07:40:37;96907.22;;;13.56;32.41
77631;BME280;66798;47.370;8.552;2023-04-06T07:43:02;96900.88;;;14.34;31.23
77631;BME280;66798;47.370;8.552;2023-04-06T07:45:28;96897.25;;;15.44;31.14
77631;BME280;66798;47.370;8.552;2023-04-06T07:47:54;96901.28;;;14.22;31.49
77631;BME280;66798;47.370;8.552;2023-04-06T07:50:19;96900.94;;;13.52;31.34
77631;BME280;66798;47.370;8.552;2023-04-06T07:52:45;96904.78;;;12.91;32.60
77631;BME280;66798;47.370;8.552;2023-04-06T07:55:10;96904.06;;;15.97;28.26
77631;BME280;66798;47.370;8.552;2023-04-06T07:57:36;96902.16;;;17.84;26.06
77631;BME280;66798;47.370;8.552;2023-04-06T08:00:01;96898.16;;;15.72;28.52
77631;BME280;66798;47.370;8.552;2023-04-06T08:02:29;96892.50;;;12.01;34.57
77631;BME280;66798;47.370;8.552;2023-04-06T08:04:55;96894.06;;;12.12;35.33
77631;BME280;66798;47.370;8.552;2023-04-06T08:07:20;96899.47;;;15.04;31.40
77631;BME280;66798;47.370;8.552;2023-04-06T08:09:45;96894.53;;;12.29;34.80
77631;BME280;66798;47.370;8.552;2023-04-06T08:12:11;96903.91;;;13.01;32.89
77631;BME280;66798;47.370;8.552;2023-04-06T08:14:36;96896.91;;;16.39;28.52
77631;BME280;66798;47.370;8.552;2023-04-06T08:17:02;96896.59;;;15.99;29.53
77631;BME280;66798;47.370;8.552;2023-04-06T08:19:27;96899.94;;;18.17;28.34
77631;BME280;66798;47.370;8.552;2023-04-06T08:21:53;96909.91;;;18.52;27.73
77631;BME280;66798;47.370;8.552;2023-04-06T08:24:18;96907.22;;;18.34;27.64
77631;BME280;66798;47.370;8.552;2023-04-06T08:26:44;96897.41;;;19.74;26.01
77631;BME280;66798;47.370;8.552;2023-04-06T08:29:09;96903.22;;;19.59;25.77
77631;BME280;66798;47.370;8.552;2023-04-06T08:31:36;96903.91;;;19.03;26.48
77631;BME280;66798;47.370;8.552;2023-04-06T08:34:03;96905.91;;;19.50;26.62
77631;BME280;66798;47.370;8.552;2023-04-06T08:36:29;96910.97;;;18.42;27.17
77631;BME280;66798;47.370;8.552;2023-04-06T08:38:55;96898.09;;;16.96;28.67
77631;BME280;66798;47.370;8.552;2023-04-06T08:41:20;96899.25;;;17.49;27.81
77631;BME280;66798;47.370;8.552;2023-04-06T08:43:48;96897.72;;;18.11;27.21
77631;BME280;66798;47.370;8.552;2023-04-06T08:46:15;96899.44;;;17.30;28.77
77631;BME280;66798;47.370;8.552;2023-04-06T08:48:42;96892.56;;;15.74;29.53
77631;BME280;66798;47.370;8.552;2023-04-06T08:51:11;96894.06;;;16.07;29.39
77631;BME280;66798;47.370;8.552;2023-04-06T08:53:37;96897.00;;;19.28;25.57
77631;BME280;66798;47.370;8.552;2023-04-06T08:56:05;96895.59;;;18.79;26.13
77631;BME280;66798;47.370;8.552;2023-04-06T08:58:35;96892.91;;;19.22;25.44
77631;BME280;66798;47.370;8.552;2023-04-06T09:01:06;96895.25;;;20.06;24.68
77631;BME280;66798;47.370;8.552;2023-04-06T09:03:39;96896.06;;;21.50;22.18
77631;BME280;66798;47.370;8.552;2023-04-06T09:06:06;96889.25;;;20.18;24.23
77631;BME280;66798;47.370;8.552;2023-04-06T09:08:39;96891.63;;;19.72;21.86
77631;BME280;66798;47.370;8.552;2023-04-06T09:11:06;96876.84;;;19.75;22.19
77631;BME280;66798;47.370;8.552;2023-04-06T09:13:32;96883.16;;;16.23;27.43
77631;BME280;66798;47.370;8.552;2023-04-06T09:16:09;96890.16;;;17.95;25.86
77631;BME280;66798;47.370;8.552;2023-04-06T09:18:34;96881.00;;;13.65;29.12
77631;BME280;66798;47.370;8.552;2023-04-06T09:21:02;96879.16;;;15.32;28.36
77631;BME280;66798;47.370;8.552;2023-04-06T09:23:28;96874.44;;;15.29;27.30
77631;BME280;66798;47.370;8.552;2023-04-06T09:26:14;96873.81;;;18.19;25.02
77631;BME280;66798;47.370;8.552;2023-04-06T09:28:46;96874.59;;;13.71;28.72
77631;BME280;66798;47.370;8.552;2023-04-06T09:31:16;96875.19;;;14.97;28.88
77631;BME280;66798;47.370;8.552;2023-04-06T09:33:44;96868.19;;;16.41;27.77
77631;BME280;66798;47.370;8.552;2023-04-06T09:36:11;96870.25;;;17.61;25.79
77631;BME280;66798;47.370;8.552;2023-04-06T09:38:55;96873.56;;;17.45;24.07
77631;BME280;66798;47.370;8.552;2023-04-06T09:41:31;96870.88;;;17.90;23.48
77631;BME280;66798;47.370;8.552;2023-04-06T09:44:10;96872.03;;;15.79;27.01
77631;BME280;66798;47.370;8.552;2023-04-06T09:46:46;96873.41;;;13.82;29.27
77631;BME280;66798;47.370;8.552;2023-04-06T09:49:13;96873.19;;;14.27;28.79
77631;BME280;66798;47.370;8.552;2023-04-06T09:51:47;96862.00;;;17.18;25.50
77631;BME280;66798;47.370;8.552;2023-04-06T09:54:22;96858.25;;;17.41;24.90
77631;BME280;66798;47.370;8.552;2023-04-06T09:56:52;96859.34;;;17.18;26.46
77631;BME280;66798;47.370;8.552;2023-04-06T09:59:48;96860.53;;;14.85;28.50
77631;BME280;66798;47.370;8.552;2023-04-06T10:05:29;96849.38;;;13.54;29.81
77631;BME280;66798;47.370;8.552;2023-04-06T10:07:59;96851.47;;;13.81;29.10
77631;BME280;66798;47.370;8.552;2023-04-06T10:10:28;96855.19;;;15.23;27.06
77631;BME280;66798;47.370;8.552;2023-04-06T10:12:54;96856.94;;;13.66;28.61
77631;BME280;66798;47.370;8.552;2023-04-06T10:15:21;96854.59;;;14.56;28.90
77631;BME280;66798;47.370;8.552;2023-04-06T10:17:47;96861.22;;;15.76;26.89
77631;BME280;66798;47.370;8.552;2023-04-06T10:20:43;96862.78;;;16.18;25.44
77631;BME280;66798;47.370;8.552;2023-04-06T10:23:15;96853.09;;;15.53;24.69
77631;BME280;66798;47.370;8.552;2023-04-06T10:25:56;96860.50;;;17.26;23.45
77631;BME280;66798;47.370;8.552;2023-04-06T10:28:23;96854.84;;;18.78;21.76
77631;BME280;66798;47.370;8.552;2023-04-06T10:30:48;96854.53;;;16.33;24.38
77631;BME280;66798;47.370;8.552;2023-04-06T10:33:15;96856.56;;;17.23;23.58
77631;BME280;66798;47.370;8.552;2023-04-06T10:35:41;96863.44;;;16.79;25.08
77631;BME280;66798;47.370;8.552;2023-04-06T10:38:07;96855.59;;;17.73;22.46
77631;BME280;66798;47.370;8.552;2023-04-06T10:40:36;96861.44;;;17.30;22.75
77631;BME280;66798;47.370;8.552;2023-04-06T10:43:18;96853.84;;;15.73;23.54
77631;BME280;66798;47.370;8.552;2023-04-06T10:45:44;96855.22;;;17.66;21.52
77631;BME280;66798;47.370;8.552;2023-04-06T10:48:17;96849.69;;;17.00;22.71
77631;BME280;66798;47.370;8.552;2023-04-06T10:50:46;96845.41;;;15.84;23.50
77631;BME280;66798;47.370;8.552;2023-04-06T10:53:21;96852.03;;;16.65;23.70
77631;BME280;66798;47.370;8.552;2023-04-06T10:55:49;96855.31;;;14.99;25.69
77631;BME280;66798;47.370;8.552;2023-04-06T10:58:15;96851.31;;;16.09;24.29
77631;BME280;66798;47.370;8.552;2023-04-06T11:00:45;96847.22;;;17.26;23.91
77631;BME280;66798;47.370;8.552;2023-04-06T11:03:10;96856.44;;;17.28;23.86
77631;BME280;66798;47.370;8.552;2023-04-06T11:05:36;96847.88;;;15.81;25.38
77631;BME280;66798;47.370;8.552;2023-04-06T11:08:01;96843.28;;;15.54;24.75
77631;BME280;66798;47.370;8.552;2023-04-06T11:10:27;96840.75;;;13.44;27.39
77631;BME280;66798;47.370;8.552;2023-04-06T11:12:54;96835.34;;;13.59;27.23
77631;BME280;66798;47.370;8.552;2023-04-06T11:15:20;96835.59;;;15.99;25.33
77631;BME280;66798;47.370;8.552;2023-04-06T11:17:45;96826.31;;;16.38;25.21
77631;BME280;66798;47.370;8.552;2023-04-06T11:20:11;96834.56;;;17.94;22.41
77631;BME280;66798;47.370;8.552;2023-04-06T11:22:48;96821.53;;;16.62;26.24
77631;BME280;66798;47.370;8.552;2023-04-06T11:25:13;96825.75;;;17.53;24.17
77631;BME280;66798;47.370;8.552;2023-04-06T11:27:39;96824.03;;;18.46;23.24
77631;BME280;66798;47.370;8.552;2023-04-06T11:30:06;96824.72;;;17.32;24.27
77631;BME280;66798;47.370;8.552;2023-04-06T11:32:40;96821.81;;;18.22;24.44
77631;BME280;66798;47.370;8.552;2023-04-06T11:35:07;96817.31;;;16.97;23.47
77631;BME280;66798;47.370;8.552;2023-04-06T11:37:32;96809.75;;;16.54;24.09
77631;BME280;66798;47.370;8.552;2023-04-06T11:39:58;96809.38;;;15.83;25.33
77631;BME280;66798;47.370;8.552;2023-04-06T11:42:29;96810.50;;;15.63;25.44
77631;BME280;66798;47.370;8.552;2023-04-06T11:44:56;96816.00;;;15.67;24.54
77631;BME280;66798;47.370;8.552;2023-04-06T11:47:36;96802.03;;;15.01;24.40
77631;BME280;66798;47.370;8.552;2023-04-06T11:50:09;96802.28;;;14.48;25.34
77631;BME280;66798;47.370;8.552;2023-04-06T11:52:35;96795.41;;;15.17;24.63
77631;BME280;66798;47.370;8.552;2023-04-06T11:55:13;96794.75;;;14.93;25.11
77631;BME280;66798;47.370;8.552;2023-04-06T11:57:40;96791.88;;;14.32;26.25
77631;BME280;66798;47.370;8.552;2023-04-06T12:00:07;96792.28;;;15.29;25.75
77631;BME280;66798;47.370;8.552;2023-04-06T12:02:35;96784.81;;;14.65;26.80
77631;BME280;66798;47.370;8.552;2023-04-06T12:05:01;96788.09;;;14.95;26.38
77631;BME280;66798;47.370;8.552;2023-04-06T12:07:28;96778.63;;;15.22;24.83
77631;BME280;66798;47.370;8.552;2023-04-06T12:09:54;96789.13;;;14.61;26.04
77631;BME280;66798;47.370;8.552;2023-04-06T12:12:19;96782.22;;;13.79;27.53
77631;BME280;66798;47.370;8.552;2023-04-06T12:14:45;96788.03;;;14.43;26.63
77631;BME280;66798;47.370;8.552;2023-04-06T12:17:10;96783.31;;;14.78;25.43
77631;BME280;66798;47.370;8.552;2023-04-06T12:19:36;96768.06;;;14.51;26.27
77631;BME280;66798;47.370;8.552;2023-04-06T12:22:01;96774.72;;;14.68;26.47
77631;BME280;66798;47.370;8.552;2023-04-06T12:24:27;96776.72;;;14.95;25.96
77631;BME280;66798;47.370;8.552;2023-04-06T12:26:53;96772.31;;;14.33;25.74
77631;BME280;66798;47.370;8.552;2023-04-06T12:29:18;96764.94;;;14.30;26.06
77631;BME280;66798;47.370;8.552;2023-04-06T12:31:44;96764.28;;;13.76;26.91
77631;BME280;66798;47.370;8.552;2023-04-06T12:34:10;96758.97;;;13.57;27.33
77631;BME280;66798;47.370;8.552;2023-04-06T12:36:37;96758.41;;;14.03;24.55
77631;BME280;66798;47.370;8.552;2023-04-06T12:39:03;96768.78;;;14.00;25.21
77631;BME280;66798;47.370;8.552;2023-04-06T12:41:28;96762.72;;;13.75;25.04
77631;BME280;66798;47.370;8.552;2023-04-06T12:43:54;96764.66;;;14.70;25.54
77631;BME280;66798;47.370;8.552;2023-04-06T12:46:19;96761.16;;;14.55;23.60
77631;BME280;66798;47.370;8.552;2023-04-06T12:48:45;96762.50;;;14.72;24.64
77631;BME280;66798;47.370;8.552;2023-04-06T12:51:11;96754.84;;;13.70;24.38
77631;BME280;66798;47.370;8.552;2023-04-06T12:53:37;96757.00;;;14.30;26.31
77631;BME280;66798;47.370;8.552;2023-04-06T12:56:11;96752.06;;;14.61;25.95
77631;BME280;66798;47.370;8.552;2023-04-06T12:58:37;96751.91;;;14.34;26.42
77631;BME280;66798;47.370;8.552;2023-04-06T13:01:06;96755.97;;;13.88;26.36
77631;BME280;66798;47.370;8.552;2023-04-06T13:03:32;96754.56;;;14.53;25.33
77631;BME280;66798;47.370;8.552;2023-04-06T13:06:00;96739.53;;;15.00;23.94
77631;BME280;66798;47.370;8.552;2023-04-06T13:08:25;96745.28;;;14.55;24.60
77631;BME280;66798;47.370;8.552;2023-04-06T13:10:51;96742.88;;;15.05;25.04
77631;BME280;66798;47.370;8.552;2023-04-06T13:13:22;96743.72;;;14.87;25.52
77631;BME280;66798;47.370;8.552;2023-04-06T13:15:48;96744.41;;;14.41;24.74
77631;BME280;66798;47.370;8.552;2023-04-06T13:18:13;96737.31;;;15.21;24.97
77631;BME280;66798;47.370;8.552;2023-04-06T13:20:39;96732.31;;;15.61;24.75
77631;BME280;66798;47.370;8.552;2023-04-06T13:23:04;96735.75;;;14.87;25.95
77631;BME280;66798;47.370;8.552;2023-04-06T13:25:30;96729.38;;;14.74;26.25
77631;BME280;66798;47.370;8.552;2023-04-06T13:27:58;96736.88;;;14.48;26.39
77631;BME280;66798;47.370;8.552;2023-04-06T13:30:23;96732.81;;;15.49;25.02
77631;BME280;66798;47.370;8.552;2023-04-06T13:32:49;96734.28;;;15.69;24.54
77631;BME280;66798;47.370;8.552;2023-04-06T13:35:15;96732.50;;;15.37;24.99
77631;BME280;66798;47.370;8.552;2023-04-06T13:37:41;96730.34;;;15.39;23.62
77631;BME280;66798;47.370;8.552;2023-04-06T13:40:08;96734.09;;;15.51;24.70
77631;BME280;66798;47.370;8.552;2023-04-06T13:42:33;96737.13;;;14.33;26.39
77631;BME280;66798;47.370;8.552;2023-04-06T13:45:00;96723.56;;;13.77;26.69
77631;BME280;66798;47.370;8.552;2023-04-06T13:47:26;96729.81;;;14.95;26.32
77631;BME280;66798;47.370;8.552;2023-04-06T13:49:51;96724.19;;;15.57;24.25
77631;BME280;66798;47.370;8.552;2023-04-06T13:52:18;96711.88;;;15.89;23.35
77631;BME280;66798;47.370;8.552;2023-04-06T13:54:44;96723.03;;;14.89;24.33
77631;BME280;66798;47.370;8.552;2023-04-06T13:57:10;96718.84;;;15.02;24.76
77631;BME280;66798;47.370;8.552;2023-04-06T13:59:36;96723.91;;;15.73;24.11
77631;BME280;66798;47.370;8.552;2023-04-06T14:02:03;96718.56;;;15.17;25.17
77631;BME280;66798;47.370;8.552;2023-04-06T14:04:29;96723.47;;;15.24;25.51
77631;BME280;66798;47.370;8.552;2023-04-06T14:06:56;96723.03;;;13.99;26.12
77631;BME280;66798;47.370;8.552;2023-04-06T14:09:21;96714.28;;;14.56;26.19
77631;BME280;66798;47.370;8.552;2023-04-06T14:11:47;96719.34;;;14.52;25.58
77631;BME280;66798;47.370;8.552;2023-04-06T14:14:12;96724.31;;;14.59;26.00
77631;BME280;66798;47.370;8.552;2023-04-06T14:16:38;96722.28;;;15.30;25.66
77631;BME280;66798;47.370;8.552;2023-04-06T14:19:03;96716.44;;;15.33;25.68
77631;BME280;66798;47.370;8.552;2023-04-06T14:21:29;96712.28;;;15.27;25.69
77631;BME280;66798;47.370;8.552;2023-04-06T14:23:54;96718.44;;;14.95;27.25
77631;BME280;66798;47.370;8.552;2023-04-06T14:26:20;96714.78;;;14.39;27.19
77631;BME280;66798;47.370;8.552;2023-04-06T14:28:46;96724.16;;;14.12;27.50
77631;BME280;66798;47.370;8.552;2023-04-06T14:31:13;96716.66;;;14.38;27.93
77631;BME280;66798;47.370;8.552;2023-04-06T14:33:39;96721.16;;;14.00;27.93
77631;BME280;66798;47.370;8.552;2023-04-06T14:36:06;96711.13;;;13.59;27.97
77631;BME280;66798;47.370;8.552;2023-04-06T14:38:32;96720.13;;;13.77;28.53
77631;BME280;66798;47.370;8.552;2023-04-06T14:40:58;96711.88;;;14.21;27.79
77631;BME280;66798;47.370;8.552;2023-04-06T14:43:23;96719.22;;;14.06;27.81
77631;BME280;66798;47.370;8.552;2023-04-06T14:45:50;96716.81;;;14.80;26.79
77631;BME280;66798;47.370;8.552;2023-04-06T14:48:15;96712.28;;;14.48;26.20
77631;BME280;66798;47.370;8.552;2023-04-06T14:50:52;96720.94;;;14.15;27.20
77631;BME280;66798;47.370;8.552;2023-04-06T14:53:18;96724.81;;;13.37;28.44
77631;BME280;66798;47.370;8.552;2023-04-06T14:55:44;96720.81;;;13.88;28.39
77631;BME280;66798;47.370;8.552;2023-04-06T14:58:09;96718.38;;;14.10;28.28
77631;BME280;66798;47.370;8.552;2023-04-06T15:00:37;96709.97;;;13.65;28.64
77631;BME280;66798;47.370;8.552;2023-04-06T15:03:03;96709.84;;;14.13;29.01
77631;BME280;66798;47.370;8.552;2023-04-06T15:05:29;96712.28;;;13.72;29.54
77631;BME280;66798;47.370;8.552;2023-04-06T15:07:55;96712.69;;;13.07;30.13
77631;BME280;66798;47.370;8.552;2023-04-06T15:10:21;96711.56;;;13.42;29.42
77631;BME280;66798;47.370;8.552;2023-04-06T15:12:46;96723.78;;;13.38;29.95
77631;BME280;66798;47.370;8.552;2023-04-06T15:15:12;96721.47;;;13.26;29.94
77631;BME280;66798;47.370;8.552;2023-04-06T15:17:37;96718.41;;;13.43;30.38
77631;BME280;66798;47.370;8.552;2023-04-06T15:20:03;96720.47;;;13.22;30.42
77631;BME280;66798;47.370;8.552;2023-04-06T15:22:29;96724.78;;;13.13;30.15
77631;BME280;66798;47.370;8.552;2023-04-06T15:24:55;96722.88;;;13.18;30.72
77631;BME280;66798;47.370;8.552;2023-04-06T15:27:20;96726.59;;;12.88;30.89
77631;BME280;66798;47.370;8.552;2023-04-06T15:29:46;96722.34;;;12.92;30.57
77631;BME280;66798;47.370;8.552;2023-04-06T15:32:11;96718.13;;;12.91;30.51
77631;BME280;66798;47.370;8.552;2023-04-06T15:34:37;96715.78;;;13.43;29.62
77631;BME280;66798;47.370;8.552;2023-04-06T15:37:03;96713.78;;;13.78;29.54
77631;BME280;66798;47.370;8.552;2023-04-06T15:39:30;96717.25;;;13.30;30.16
77631;BME280;66798;47.370;8.552;2023-04-06T15:41:56;96709.13;;;13.70;28.92
77631;BME280;66798;47.370;8.552;2023-04-06T15:44:22;96715.22;;;13.46;29.67
77631;BME280;66798;47.370;8.552;2023-04-06T15:46:48;96718.69;;;12.88;30.14
77631;BME280;66798;47.370;8.552;2023-04-06T15:49:13;96719.47;;;12.89;30.90
77631;BME280;66798;47.370;8.552;2023-04-06T15:51:39;96723.06;;;12.69;30.72
77631;BME280;66798;47.370;8.552;2023-04-06T15:54:05;96715.47;;;12.91;30.80
77631;BME280;66798;47.370;8.552;2023-04-06T15:56:31;96717.31;;;12.62;30.62
77631;BME280;66798;47.370;8.552;2023-04-06T15:58:57;96715.16;;;12.98;30.25
77631;BME280;66798;47.370;8.552;2023-04-06T16:01:24;96718.16;;;13.15;30.53
77631;BME280;66798;47.370;8.552;2023-04-06T16:03:50;96716.31;;;13.16;30.86
77631;BME280;66798;47.370;8.552;2023-04-06T16:06:16;96724.09;;;12.73;31.32
77631;BME280;66798;47.370;8.552;2023-04-06T16:08:41;96714.69;;;12.91;31.21
77631;BME280;66798;47.370;8.552;2023-04-06T16:11:08;96720.06;;;12.81;31.24
77631;BME280;66798;47.370;8.552;2023-04-06T16:13:34;96715.00;;;12.55;31.30
77631;BME280;66798;47.370;8.552;2023-04-06T16:16:00;96715.78;;;12.56;31.12
77631;BME280;66798;47.370;8.552;2023-04-06T16:18:26;96718.34;;;12.66;31.17
77631;BME280;66798;47.370;8.552;2023-04-06T16:20:51;96725.81;;;12.53;31.75
77631;BME280;66798;47.370;8.552;2023-04-06T16:23:17;96721.66;;;12.47;31.77
77631;BME280;66798;47.370;8.552;2023-04-06T16:25:42;96726.84;;;12.58;32.18
77631;BME280;66798;47.370;8.552;2023-04-06T16:28:08;96733.78;;;12.48;32.49
77631;BME280;66798;47.370;8.552;2023-04-06T16:30:37;96727.19;;;12.06;32.99
77631;BME280;66798;47.370;8.552;2023-04-06T16:33:03;96734.22;;;12.21;32.74
77631;BME280;66798;47.370;8.552;2023-04-06T16:35:28;96742.84;;;11.77;33.39
77631;BME280;66798;47.370;8.552;2023-04-06T16:37:54;96734.09;;;11.97;33.72
77631;BME280;66798;47.370;8.552;2023-04-06T16:40:19;96739.97;;;12.28;32.51
77631;BME280;66798;47.370;8.552;2023-04-06T16:42:45;96727.66;;;12.19;32.52
77631;BME280;66798;47.370;8.552;2023-04-06T16:45:11;96724.97;;;12.24;32.08
77631;BME280;66798;47.370;8.552;2023-04-06T16:47:37;96706.25;;;12.20;31.66
77631;BME280;66798;47.370;8.552;2023-04-06T16:50:04;96696.72;;;11.85;32.27
77631;BME280;66798;47.370;8.552;2023-04-06T16:52:30;96695.94;;;11.79;32.01
77631;BME280;66798;47.370;8.552;2023-04-06T16:54:57;96692.03;;;11.72;32.21
77631;BME280;66798;47.370;8.552;2023-04-06T16:57:22;96695.72;;;11.71;32.41
77631;BME280;66798;47.370;8.552;2023-04-06T16:59:53;96698.66;;;11.64;32.79
77631;BME280;66798;47.370;8.552;2023-04-06T17:02:18;96699.69;;;11.68;33.02
77631;BME280;66798;47.370;8.552;2023-04-06T17:04:44;96705.69;;;11.79;33.31
77631;BME280;66798;47.370;8.552;2023-04-06T17:07:09;96713.88;;;11.72;32.38
77631;BME280;66798;47.370;8.552;2023-04-06T17:09:35;96716.50;;;11.82;31.28
77631;BME280;66798;47.370;8.552;2023-04-06T17:12:00;96716.53;;;11.72;30.79
77631;BME280;66798;47.370;8.552;2023-04-06T17:14:26;96713.16;;;11.61;30.11
77631;BME280;66798;47.370;8.552;2023-04-06T17:16:51;96716.03;;;11.60;31.23
77631;BME280;66798;47.370;8.552;2023-04-06T17:19:17;96717.97;;;11.39;31.34
77631;BME280;66798;47.370;8.552;2023-04-06T17:21:42;96718.53;;;11.25;31.92
77631;BME280;66798;47.370;8.552;2023-04-06T17:24:08;96724.59;;;11.26;33.45
77631;BME280;66798;47.370;8.552;2023-04-06T17:26:33;96725.84;;;11.44;32.82
77631;BME280;66798;47.370;8.552;2023-04-06T17:28:59;96731.16;;;11.34;33.00
77631;BME280;66798;47.370;8.552;2023-04-06T17:31:24;96725.13;;;11.23;33.24
77631;BME280;66798;47.370;8.552;2023-04-06T17:33:50;96730.13;;;11.24;33.28
77631;BME280;66798;47.370;8.552;2023-04-06T17:36:16;96728.81;;;11.32;32.69
77631;BME280;66798;47.370;8.552;2023-04-06T17:38:41;96725.38;;;11.26;32.85
77631;BME280;66798;47.370;8.552;2023-04-06T17:41:12;96727.25;;;11.21;33.48
77631;BME280;66798;47.370;8.552;2023-04-06T17:43:38;96724.63;;;11.16;33.38
77631;BME280;66798;47.370;8.552;2023-04-06T17:46:04;96728.06;;;11.06;33.29
77631;BME280;66798;47.370;8.552;2023-04-06T17:48:30;96718.56;;;11.05;32.57
77631;BME280;66798;47.370;8.552;2023-04-06T17:50:56;96727.25;;;11.11;32.47
77631;BME280;66798;47.370;8.552;2023-04-06T17:53:21;96724.38;;;11.07;32.03
77631;BME280;66798;47.370;8.552;2023-04-06T17:55:47;96727.03;;;10.97;31.88
77631;BME280;66798;47.370;8.552;2023-04-06T17:58:12;96727.81;;;10.77;32.38
77631;BME280;66798;47.370;8.552;2023-04-06T18:00:38;96740.16;;;10.87;32.60
77631;BME280;66798;47.370;8.552;2023-04-06T18:03:03;96739.66;;;10.90;32.71
77631;BME280;66798;47.370;8.552;2023-04-06T18:05:29;96743.31;;;10.89;32.49
77631;BME280;66798;47.370;8.552;2023-04-06T18:07:54;96748.84;;;10.77;32.83
77631;BME280;66798;47.370;8.552;2023-04-06T18:10:23;96750.19;;;10.69;32.71
77631;BME280;66798;47.370;8.552;2023-04-06T18:12:49;96755.97;;;10.66;32.61
77631;BME280;66798;47.370;8.552;2023-04-06T18:15:15;96757.28;;;10.63;32.93
77631;BME280;66798;47.370;8.552;2023-04-06T18:17:41;96764.94;;;10.70;32.77
77631;BME280;66798;47.370;8.552;2023-04-06T18:20:07;96764.66;;;10.67;32.96